Nearby METAR Reports

 

KAVP - Avoca/Wilkes B., Pennsylvania, USA
Distance from station: SW 13mi, 22km
Updated: Sun, 24-Sep-2017 21:54 EDT
Clear
Clear
 Wind from E
Wind: E 7 mph , 11 km/h
Temperature: 73°F , 23°C
Dew Point: 66°F , 19°C
Humidity: 78%
Barometer: 30.11 inHg , 1019.6 hPa
Clouds: Clear
Visibility: 9 miles , 14 km
2017/09/25 01:54 KAVP 250154Z 10006KT 9SM CLR 23/19 A3011 RMK AO2 SLP187 T02330189
KMPO - Mt. Pocono, Pennsylvania, USA
Distance from station: SSE 26mi, 43km
Updated: Sun, 24-Sep-2017 21:53 EDT
Clear
Clear
 Wind from N
Wind: N 6 mph , 9 km/h
Temperature: 66°F , 19°C
Dew Point: 64°F , 18°C
Humidity: 94%
Barometer: 30.15 inHg , 1021 hPa
Clouds: Clear
Visibility: 10 miles , 16 km
2017/09/25 01:53 KMPO 250153Z AUTO 36005KT 10SM CLR 19/18 A3015 RMK AO2 SLP198 T01940178
KMSV - Monticello, New York, USA
Distance from station: ENE 43mi, 69km
Updated: Sun, 24-Sep-2017 21:56 EDT
Clear
Clear
 Wind from calm
Wind: Calm
Temperature: 72°F , 22°C
Dew Point: 64°F , 18°C
Humidity: 78%
Barometer: 30.14 inHg , 1020.7 hPa
Clouds: Clear
Visibility: 10 miles , 16 km
2017/09/25 01:56 KMSV 250156Z AUTO 00000KT 10SM CLR 22/18 A3014 RMK AO2 SLP197 T02220183
 
KFWN - Sussex, New Jersey, USA
Distance from station: ESE 52mi, 84km
Updated: Sun, 24-Sep-2017 21:53 EDT
Clear
Clear
 Wind from calm
Wind: Calm
Temperature: 70°F , 21°C
Dew Point: 70°F , 21°C
Humidity: 100%
Barometer: 30.08 inHg , 1018.6 hPa
Clouds: Clear
Visibility: 10 miles , 16 km
2017/09/25 01:53 KFWN 250153Z AUTO 00000KT 10SM CLR 21/21 A3008 RMK AO2 SLP183 T02060206
K12N - Andover, New Jersey, USA
Distance from station: SE 54mi, 87km
Updated: Sun, 24-Sep-2017 21:54 EDT

 Wind from calm
Wind: Calm
Temperature: 70°F , 21°C
Dew Point: 66°F , 19°C
Humidity: 88%
Barometer: 30.09 inHg , 1019 hPa
2017/09/25 01:54 K12N 250154Z AUTO 00000KT 21/19 A3009 RMK AO1 SLP181 T02060194
KBGM - Binghamton, New York, USA
Distance from station: NNW 55mi, 88km
Updated: Sun, 24-Sep-2017 21:53 EDT
Clear
Clear
 Wind from N
Wind: N 8 mph , 13 km/h
Temperature: 73°F , 23°C
Dew Point: 64°F , 18°C
Humidity: 74%
Barometer: 30.15 inHg , 1021 hPa
Clouds: Clear
Visibility: 10 miles , 16 km
2017/09/25 01:53 KBGM 250153Z 35007KT 10SM CLR 23/18 A3015 RMK AO2 SLP201 T02280183
 
KABE - Allentown, Pennsylvania, USA
Distance from station: S 58mi, 94km
Updated: Sun, 24-Sep-2017 21:51 EDT
Clear
Clear
 Wind from calm
Wind: Calm
Temperature: 73°F , 23°C
Dew Point: 66°F , 19°C
Humidity: 78%
Barometer: 30.07 inHg , 1018.3 hPa
Clouds: Clear
Visibility: 10 miles , 16 km
2017/09/25 01:51 KABE 250151Z 00000KT 10SM CLR 23/19 A3007 RMK AO2 SLP179 T02280189
KXLL - Allentown Queen, Pennsylvania, USA
Distance from station: S 64mi, 103km
Updated: Sun, 24-Sep-2017 22:15 EDT
Clear
Clear
 Wind from calm
Wind: Calm
Temperature: 73°F , 23°C
Dew Point: 68°F , 20°C
Humidity: 83%
Barometer: 30.08 inHg , 1018.6 hPa
Clouds: Clear
Visibility: 10 miles , 16 km
2017/09/25 02:15 KXLL 250215Z AUTO 00000KT 10SM CLR 23/20 A3008 RMK AO2
KMGJ - Montgomery, New York, USA
Distance from station: E 67mi, 108km
Updated: Sun, 24-Sep-2017 21:54 EDT
Clear
Clear
 Wind from calm
Wind: Calm
Temperature: 70°F , 21°C
Dew Point: 66°F , 19°C
Humidity: 88%
Barometer: 30.07 inHg , 1018.3 hPa
Clouds: Clear
Visibility: 10 miles , 16 km
2017/09/25 01:54 KMGJ 250154Z AUTO 00000KT 10SM CLR 21/19 A3007 RMK AO2 SLP179 T02060194
 
KIPT - Williamsport, Pennsylvania, USA
Distance from station: WSW 72mi, 116km
Updated: Sun, 24-Sep-2017 21:54 EDT
Clear
Clear
 Wind from calm
Wind: Calm
Temperature: 73°F , 23°C
Dew Point: 68°F , 20°C
Humidity: 83%
Barometer: 30.09 inHg , 1019 hPa
Clouds: Clear
Visibility: 10 miles , 16 km
2017/09/25 01:54 KIPT 250154Z 00000KT 10SM CLR 23/20 A3009 RMK AO2 SLP185 T02280200
KUKT - Quakertown Arp, Pennsylvania, USA
Distance from station: S 74mi, 119km
Updated: Sun, 24-Sep-2017 22:15 EDT
Clear
Clear
 Wind from calm
Wind: Calm
Temperature: 68°F , 20°C
Dew Point: 66°F , 19°C
Humidity: 94%
Barometer: 30.09 inHg , 1019 hPa
Clouds: Clear
Visibility: 10 miles , 16 km
2017/09/25 02:15 KUKT 250215Z AUTO 00000KT 10SM CLR 20/19 A3009 RMK AO1
KSMQ - Somerville, New Jersey, USA
Distance from station: SE 76mi, 123km
Updated: Wed, 06-Sep-2017 09:01 EDT
NOT Current
Overcast
Overcast
 Wind from N
Wind: N 9 mph , 15 km/h, Gust: 17 mph , 28 km/h
Temperature: 64°F , 18°C
Dew Point: 61°F , 16°C
Humidity: 88%
Barometer: 29.87 inHg , 1011.5 hPa
Clouds: Overcast
Visibility: 7 miles , 11 km
Cloud details: Partly cloudy 1200 ft
Overcast 2500 ft
2017/09/06 13:01 KSMQ 061301Z AUTO 35008G15KT 7SM SCT012 OVC025 18/16 A2987 RMK AO2 PRESRR T01780161
 
KSWF - Newburgh/Stewart, New York, USA
Distance from station: E 77mi, 123km
Updated: Sun, 24-Sep-2017 21:45 EDT
Clear
Clear
 Wind from varies
Wind: varies 5 mph , 7 km/h
Temperature: 72°F , 22°C
Dew Point: 70°F , 21°C
Humidity: 94%
Barometer: 30.08 inHg , 1018.6 hPa
Clouds: Clear
Visibility: 10 miles , 16 km
2017/09/25 01:45 KSWF 250145Z VRB04KT 10SM SKC 22/21 A3008
KMMU - Morristown Muni, New Jersey, USA
Distance from station: SE 77mi, 124km
Updated: Sun, 24-Sep-2017 21:45 EDT
Clear
Clear
 Wind from calm
Wind: Calm
Temperature: 68°F , 20°C
Dew Point: 66°F , 19°C
Humidity: 94%
Barometer: 30.06 inHg , 1017.9 hPa
Clouds: Clear
Visibility: 10 miles , 16 km
2017/09/25 01:45 KMMU 250145Z 00000KT 10SM SKC 20/19 A3006
KCDW - Caldwell, New Jersey, USA
Distance from station: ESE 79mi, 127km
Updated: Sun, 24-Sep-2017 21:53 EDT
Clear
Clear
 Wind from calm
Wind: Calm
Temperature: 73°F , 23°C
Dew Point: 70°F , 21°C
Humidity: 89%
Barometer: 30.07 inHg , 1018.3 hPa
Clouds: Clear
Visibility: 10 miles , 16 km
2017/09/25 01:53 KCDW 250153Z 00000KT 10SM CLR 23/21 A3007 RMK AO2 SLP185 T02330211
 
KRDG - Reading, Pennsylvania, USA
Distance from station: SSW 80mi, 130km
Updated: Sun, 24-Sep-2017 21:54 EDT
Clear
Clear
 Wind from calm
Wind: Calm
Temperature: 73°F , 23°C
Dew Point: 70°F , 21°C
Humidity: 89%
Barometer: 30.06 inHg , 1017.9 hPa
Clouds: Clear
Visibility: 10 miles , 16 km
2017/09/25 01:54 KRDG 250154Z AUTO 00000KT 10SM CLR 23/21 A3006 RMK AO2 SLP182 T02330206 $
KITH - Ithaca/Tompkins, New York, USA
Distance from station: NW 81mi, 131km
Updated: Sun, 24-Sep-2017 21:56 EDT
Clear
Clear
 Wind from calm
Wind: Calm
Temperature: 66°F , 19°C
Dew Point: 64°F , 18°C
Humidity: 94%
Barometer: 30.15 inHg , 1021 hPa
Clouds: Clear
Visibility: 9 miles , 14 km
2017/09/25 01:56 KITH 250156Z 00000KT 9SM CLR 19/18 A3015 RMK AO2 SLP204 T01890178
KSEG - Selinsgrove, Pennsylvania, USA
Distance from station: SW 82mi, 132km
Updated: Sun, 24-Sep-2017 21:53 EDT
Mist, Clear
Mist, Clear
 Wind from calm
Wind: Calm
Temperature: 68°F , 20°C
Dew Point: 66°F , 19°C
Humidity: 94%
Barometer: 30.09 inHg , 1019 hPa
Summary: Mist
Clouds: Clear
Visibility: 4 miles , 6 km
2017/09/25 01:53 KSEG 250153Z AUTO 00000KT 4SM BR CLR 20/19 A3009 RMK AO2 SLP187 T02000194
 
KELM - Elmira, New York, USA
Distance from station: WNW 82mi, 133km
Updated: Sun, 24-Sep-2017 21:53 EDT
Clear
Clear
 Wind from calm
Wind: Calm
Temperature: 68°F , 20°C
Dew Point: 66°F , 19°C
Humidity: 94%
Barometer: 30.13 inHg , 1020.3 hPa
Clouds: Clear
Visibility: 9 miles , 14 km
2017/09/25 01:53 KELM 250153Z AUTO 00000KT 9SM CLR 20/19 A3013 RMK AO2 SLP196 T02000194
KDYL - Doylestown, Pennsylvania, USA
Distance from station: SSE 83mi, 134km
Updated: Sun, 24-Sep-2017 21:54 EDT
Clear
Clear
 Wind from varies
Wind: varies 3 mph , 6 km/h
Temperature: 70°F , 21°C
Dew Point: 66°F , 19°C
Humidity: 88%
Barometer: 30.06 inHg , 1017.9 hPa
Clouds: Clear
Visibility: 10 miles , 16 km
2017/09/25 01:54 KDYL 250154Z AUTO VRB03KT 10SM CLR 21/19 A3006 RMK AO2 SLP173 T02110194